Paxton, Nebraska
Current Conditions -  °F | °C
As of 10:55 PM on Tuesday 21 Oct 2014 (Local Time) from KOGA Reporting Station
Clear Clear  
Wind Chill: 63°   Ceiling: Unl
Heat Index: 63°   Visibility: 10mi
Dew Point: 51°   Wind: 12mph
Humidity: 66%   Direction: 170°S
Pressure: 29.89"   Gusts: NA
Location:  41.12°N, 101.36°W
Report Text: KOGA 220455Z AUTO 17010KT 10SM CLR 17/11 A2989 RMK AO2 T01700105
Loading
Personal Weather Stations






























Interactive Weather Map
Tropical Storm Tracking
New forecast layout! Learn more

10-Day Weather Forecast

Advertisements
Track Severe Weather on mobile